SASJSARE

Guest
Details From SASJ - JUJUY
To SARE - RESISTENCIA
Flight Number -
Tags generated
Created
Modified
Stats Distance 383 nm / 710 km
Max Altitude 23,500 ft / 7,163 m
Waypoints 5
Social Downloads 0
Likes 0
Share VATSIM

Download

Looking for another format? Having issues loading an existing format? Contact us
Advertisement - Login to hide

Notes

Basic altitude profile: - Ascent Rate: 2500ft/min - Ascent Speed: 250kts - Cruise Altitude: 310ft - Cruise Speed: 300kts - Descent Rate: 1500ft/min - Descent Speed: 250kts Options: - Use NATs: yes - Use PACOTS: yes - Use low airways: yes - Use high airways: yes

Route

SASJ TEGOL W4 PSP SARE

ID Type Via Altitude Latitude Longitude Leg Dist Tot Dist Heading (true) Name
O SASJ APT - 0 ft / 0 m -24.39274˚ -65.09783˚ - 0 nm - JUJUY
TEGOL FIX - 19,600 ft / 5,974 m -25.22083˚ -64.55778˚ 57 nm 57 nm 149° / 149° -
ILSAS FIX W4 (AWY-LO) 23,500 ft / 7,163 m -26.25444˚ -61.84639˚ 159 nm 217 nm 114° / 112° -
PSP NDB W4 (AWY-LO) 17,700 ft / 5,395 m -26.74722˚ -60.48611˚ 78 nm 295 nm 112° / 112° PRESIDENCIA ROQUE SAENZ PENA N
O SARE APT - 0 ft / 0 m -27.44999˚ -59.05613˚ 87 nm 383 nm 119° / 119° RESISTENCIA

Altitude Profile

Advertisement - Login to hide

Weather


0- 5 10 15 20 25 30 35+ Temperature / ° C

Clouds and Precipitation
Forecast for 2017-12-19 00:00 UTC. Updated 2 hours ago

Ground ~20,000 ft ~40,000 ft Winds

SASJ

Details ICAO SASJ (JUJ)
Name JUJUY
Region Argentina
Timezone America/Argentina/Jujuy (UTC-3.0)
Stats Elevation 3,019 ft / 920 m (AMSL)
Location -24.392737° -65.097833°
Runways 1
Magnetic Variation 7.988° W

METAR

SASJ 182100Z 09004KT 9999 BKN015 BKN100 20/17 Q1016

Decode

TAF

TAF SASJ 181700Z 1818/1918 36005KT RADZ SCT010 BKN040 TX26/1818Z TN16/1910Z

Decode

Departure Runways

ID Width Length Bearing (true) Bearing (mag) Surface Threshold Offset Overrun Length
15 131 ft / 40 m 9,722 ft / 2,963 m 150.29° 158.28° Asphalt 0 ft / 0 m 100 ft / 30 m
33 131 ft / 40 m 9,722 ft / 2,963 m 330.28° 338.27° Asphalt 0 ft / 0 m 100 ft / 30 m

SARE

Details ICAO SARE (RES)
Name RESISTENCIA
Region Argentina
Timezone America/Argentina/Cordoba (UTC-3.0)
Stats Elevation 173 ft / 53 m (AMSL)
Location -27.449986° -59.056125°
Runways 1
Magnetic Variation 12.051° W

METAR

SARE 182100Z 14009KT 9999 FEW045 SCT200 30/19 Q1012

Decode

TAF

TAF SARE 181700Z 1818/1918 16010KT CAVOK TX31/1819Z TN18/1909Z

Decode

Destination Runways

ID Width Length Bearing (true) Bearing (mag) Surface Threshold Offset Overrun Length
03 147 ft / 45 m 9,126 ft / 2,782 m 20.81° 32.86° Asphalt 0 ft / 0 m 115 ft / 35 m
21 147 ft / 45 m 9,126 ft / 2,782 m 200.81° 212.86° Asphalt 0 ft / 0 m 115 ft / 35 m

Approach Navaids

Runway Type Ident Frequency Range Bearing (true) Bearing (mag) Slope Elevation
21 Localiser RS 110.30 MHz 18 nm / 33 km 200.74° 212.79° - 174 ft / 53 m (AMSL)
21 Glidescope RS 110.30 MHz 10 nm / 19 km 200.81° 212.86° 3.00° 174 ft / 53 m (AMSL)